CDT,Max TemperatureF,Mean TemperatureF,Min TemperatureF,Max Dew PointF,MeanDew PointF,Min DewpointF,Max Humidity, Mean Humidity, Min Humidity, Max Sea Level PressureIn, Mean Sea Level PressureIn, Min Sea Level PressureIn, Max VisibilityMiles, Mean VisibilityMiles, Min VisibilityMiles, Max Wind SpeedMPH, Mean Wind SpeedMPH, Max Gust SpeedMPH,PrecipitationIn, CloudCover, Events, WindDirDegrees
2012-10-1,57,56,55,54,50,46,94,80,72,29.85,29.77,29.71,10,10,5,12,6,16,0.00,4,,21
2012-10-2,55,55,55,54,52,50,94,87,82,29.90,29.81,29.72,10,9,1,7,3,,0.00,8,,348
2012-10-3,75,65,53,57,55,50,94,68,53,30.11,30.01,29.91,10,10,1,15,4,21,0.00,4,Thunderstorm,203
2012-10-4,78,64,51,61,55,50,100,76,47,30.20,30.15,30.11,10,8,0,16,4,23,0.00,1,,208
2012-10-5,60,51,42,52,43,37,87,81,71,30.20,30.16,30.11,10,9,4,12,5,17,0.00,5,Thunderstorm,12
2012-10-6,51,43,35,37,34,30,93,70,47,30.26,30.22,30.18,10,10,9,7,1,16,0.00,2,,337
2012-10-7,53,45,37,37,34,30,93,69,44,30.27,30.23,30.19,10,10,5,8,1,,0.00,3,,302
2012-10-8,60,46,32,39,35,30,93,72,42,30.26,30.19,30.11,10,10,6,13,2,,0.00,0,,197
2012-10-9,64,48,33,46,41,32,93,75,49,30.13,30.05,29.96,10,9,3,18,5,22,0.00,1,,208
2012-10-10,57,45,33,46,38,30,93,75,50,30.27,30.18,29.98,10,10,7,12,5,22,0.00,2,,322
2012-10-11,62,46,30,46,36,28,100,69,42,30.29,30.24,30.18,10,10,7,15,3,17,0.00,3,,196
2012-10-12,66,56,46,48,46,43,93,73,49,30.36,30.28,30.20,10,9,2,15,3,21,0.00,3,,59
2012-10-13,75,60,46,66,57,43,94,81,69,30.26,30.10,29.88,10,8,3,21,6,28,0.00,4,,182
2012-10-14,73,65,55,63,58,48,88,74,60,29.94,29.82,29.72,10,10,9,31,16,44,0.00,6,,219
2012-10-15,66,54,42,48,44,39,100,74,43,30.03,29.98,29.93,10,9,2,12,2,,0.00,0,,283
2012-10-16,77,58,39,55,48,37,93,67,44,29.99,29.84,29.71,10,9,3,20,5,23,0.00,0,,180
2012-10-17,75,65,55,57,53,48,88,69,50,29.72,29.59,29.37,10,10,3,26,12,34,0.00,5,Thunderstorm,192
2012-10-18,62,54,46,52,39,28,88,57,27,29.67,29.63,29.57,10,10,10,25,11,36,0.00,2,,233
2012-10-19,55,52,46,45,41,36,87,67,47,29.80,29.67,29.56,10,10,10,17,9,25,0.00,8,,255
2012-10-20,60,51,42,46,43,39,93,76,55,29.96,29.89,29.80,10,10,10,10,4,,0.00,4,,243
2012-10-21,77,60,44,63,52,41,93,70,50,30.01,29.98,29.95,10,10,10,14,4,18,0.00,3,,169
2012-10-22,80,70,60,64,55,48,72,60,41,30.03,30.01,29.98,10,10,7,25,9,32,0.00,2,Thunderstorm,187
2012-10-23,75,68,62,64,55,48,88,68,56,30.03,29.99,29.93,10,10,7,18,9,24,0.00,3,Thunderstorm,195
2012-10-24,78,66,55,64,58,52,88,69,54,30.05,30.00,29.95,10,10,10,21,8,26,0.00,1,,193
2012-10-25,78,61,44,63,56,41,93,70,57,30.13,29.94,29.87,10,10,1,22,10,33,0.21,3,,201
2012-10-26,48,44,39,43,35,32,93,71,57,30.30,30.24,30.13,10,10,5,13,7,23,0.60,5,,6
2012-10-27,51,43,35,36,31,28,81,64,50,30.27,30.23,30.18,10,10,10,14,6,22,0.00,0,,8
2012-10-28,51,44,37,34,31,28,75,65,47,30.24,30.21,30.19,10,10,10,13,6,17,0.00,2,,10
2012-10-29,53,44,35,34,29,25,81,56,35,30.28,30.19,30.07,10,10,10,13,5,22,0.00,0,,359
2012-10-30,55,44,33,27,24,19,75,45,25,30.06,29.92,29.84,10,10,4,10,4,21,0.00,0,,319
2012-10-31,51,40,28,30,26,21,86,61,32,29.98,29.93,29.89,10,10,10,12,2,17,0.00,0,,283